Time;durP1;ratioP1;P1;durP2;ratioP2;P2;SDS_P1;SDS_P2;PMS_P1;PMS_P2;Temp;Humidity;BMP_temperature;BMP_pressure;BME280_temperature;BME280_humidity;BME280_pressure;Samples;Min_cycle;Max_cycle;Signal;HPM_P1;HPM_P2
2022/10/13 00:00:45;;;;;;;20.30;11.48;;;;;;;5.04;100.00;99083.75;4157300;28;20410;-71
2022/10/13 00:02:46;;;;;;;20.70;11.38;;;;;;;5.07;100.00;99076.81;4155798;28;20050;-71
2022/10/13 00:04:46;;;;;;;15.55;9.70;;;;;;;5.11;100.00;99083.25;4163205;28;20078;-71
2022/10/13 00:06:46;;;;;;;19.33;10.63;;;;;;;5.11;100.00;99075.00;4155456;28;20527;-71
2022/10/13 00:08:47;;;;;;;20.63;11.20;;;;;;;5.10;100.00;99070.66;4155135;28;20084;-71
2022/10/13 00:10:49;;;;;;;26.42;10.70;;;;;;;5.11;100.00;99071.47;4157263;28;20045;-71
2022/10/13 00:12:50;;;;;;;20.65;11.02;;;;;;;5.08;100.00;99083.91;4159099;28;20045;-71
2022/10/13 00:14:50;;;;;;;20.08;10.02;;;;;;;5.06;100.00;99083.44;4156536;28;20149;-71
2022/10/13 00:16:50;;;;;;;17.63;9.80;;;;;;;5.06;100.00;99084.25;4155679;28;20042;-71
2022/10/13 00:18:51;;;;;;;17.88;10.75;;;;;;;4.99;100.00;99078.44;4155574;28;20045;-71
2022/10/13 00:20:51;;;;;;;15.07;9.63;;;;;;;4.99;100.00;99067.47;4156203;28;20054;-71
2022/10/13 00:22:52;;;;;;;14.82;8.48;;;;;;;4.94;100.00;99073.13;4155130;28;20048;-71
2022/10/13 00:24:53;;;;;;;16.95;9.57;;;;;;;4.86;100.00;99071.22;4156097;28;20041;-71
2022/10/13 00:26:53;;;;;;;16.42;8.73;;;;;;;4.81;100.00;99071.41;4155321;28;20072;-71
2022/10/13 00:28:55;;;;;;;15.50;9.07;;;;;;;4.72;100.00;99081.56;4155946;28;20033;-71
2022/10/13 00:30:55;;;;;;;15.63;8.52;;;;;;;4.70;100.00;99081.06;4161037;28;20052;-71
2022/10/13 00:32:55;;;;;;;15.77;9.50;;;;;;;4.65;100.00;99076.56;4155472;28;20397;-71
2022/10/13 00:34:56;;;;;;;13.38;7.90;;;;;;;4.67;100.00;99084.47;4157069;28;20052;-71
2022/10/13 00:36:57;;;;;;;15.63;9.98;;;;;;;4.61;100.00;99077.53;4156107;28;20042;-71
2022/10/13 00:38:57;;;;;;;17.58;9.55;;;;;;;4.64;100.00;99077.72;4155956;28;20428;-71
2022/10/13 00:40:58;;;;;;;13.38;8.55;;;;;;;4.67;100.00;99079.00;4154895;28;20049;-71
2022/10/13 00:42:58;;;;;;;16.95;10.02;;;;;;;4.61;100.00;99075.59;4154753;28;20046;-71
2022/10/13 00:45:12;;;;;;;18.08;9.13;;;;;;;4.58;100.00;99079.00;4156455;28;20049;-71
2022/10/13 00:47:13;;;;;;;15.23;8.85;;;;;;;4.59;100.00;99088.81;4155702;28;20136;-71
2022/10/13 00:49:13;;;;;;;17.73;10.25;;;;;;;4.54;100.00;99085.44;4154752;28;20357;-71
2022/10/13 00:51:18;;;;;;;15.13;8.85;;;;;;;4.51;100.00;99089.63;4155342;28;20124;-70
2022/10/13 00:53:22;;;;;;;15.60;9.00;;;;;;;4.48;100.00;99085.63;4156241;28;20047;-71
2022/10/13 00:55:26;;;;;;;18.88;10.07;;;;;;;4.51;100.00;99095.91;4155005;28;20136;-71
2022/10/13 00:57:27;;;;;;;14.73;9.57;;;;;;;4.48;100.00;99087.56;4154277;28;20496;-71
2022/10/13 00:59:28;;;;;;;16.73;9.35;;;;;;;4.51;100.00;99081.41;4154211;28;20069;-71
2022/10/13 01:01:28;;;;;;;17.08;9.38;;;;;;;4.54;100.00;99078.03;4155948;28;20041;-71
2022/10/13 01:03:29;;;;;;;17.55;10.43;;;;;;;4.55;100.00;99081.56;4154652;28;20048;-71
2022/10/13 01:05:30;;;;;;;15.65;9.48;;;;;;;4.54;100.00;99079.97;4155443;28;20053;-71
2022/10/13 01:07:31;;;;;;;24.70;10.73;;;;;;;4.53;100.00;99072.88;4155789;28;20154;-71
2022/10/13 01:09:36;;;;;;;19.60;10.20;;;;;;;4.55;100.00;99078.81;4155118;28;20071;-71
2022/10/13 01:12:10;;;;;;;17.17;10.13;;;;;;;4.51;100.00;99076.75;4155342;28;20301;-71
2022/10/13 01:14:29;;;;;;;18.90;9.63;;;;;;;4.51;100.00;99075.94;4155302;28;20038;-71
2022/10/13 01:17:11;;;;;;;16.73;9.60;;;;;;;4.52;100.00;99072.06;4154987;28;20071;-71
2022/10/13 01:19:18;;;;;;;24.15;9.82;;;;;;;4.48;100.00;99080.13;4141896;28;20107;-71
2022/10/13 01:21:31;;;;;;;17.48;10.70;;;;;;;4.45;100.00;99072.53;4154997;28;20476;-71
2022/10/13 01:23:58;;;;;;;16.45;9.48;;;;;;;4.43;100.00;99068.53;4154334;28;20037;-71
2022/10/13 01:26:28;;;;;;;17.02;9.52;;;;;;;4.44;100.00;99068.19;4154234;28;20060;-71
2022/10/13 01:28:43;;;;;;;18.80;9.98;;;;;;;4.50;100.00;99066.91;4101284;28;20055;-71
2022/10/13 01:30:55;;;;;;;14.63;9.65;;;;;;;4.47;100.00;99064.81;4155195;28;20053;-71
2022/10/13 01:33:06;;;;;;;16.58;9.98;;;;;;;4.49;100.00;99061.75;4155575;28;20073;-71
2022/10/13 01:35:12;;;;;;;15.68;9.52;;;;;;;4.48;100.00;99065.63;4154260;28;20100;-71
2022/10/13 01:37:25;;;;;;;14.85;8.98;;;;;;;4.44;100.00;99062.72;4160968;28;20485;-71
2022/10/13 01:39:51;;;;;;;15.10;9.05;;;;;;;4.39;100.00;99059.34;4153870;28;20128;-71
2022/10/13 01:42:00;;;;;;;15.57;9.57;;;;;;;4.32;100.00;99051.63;4154516;28;20493;-71
2022/10/13 01:44:15;;;;;;;16.63;9.88;;;;;;;4.38;100.00;99055.78;4156422;28;20107;-71
2022/10/13 01:46:20;;;;;;;15.68;9.63;;;;;;;4.39;100.00;99048.41;4155821;28;20404;-71
2022/10/13 01:48:21;;;;;;;13.80;8.75;;;;;;;4.37;100.00;99048.69;4154615;28;20052;-71
2022/10/13 01:50:22;;;;;;;15.35;9.27;;;;;;;4.39;100.00;99051.13;4156881;28;20038;-71
2022/10/13 01:52:26;;;;;;;14.45;9.35;;;;;;;4.36;100.00;99049.81;4154147;28;20044;-71
2022/10/13 01:54:26;;;;;;;16.95;10.10;;;;;;;4.36;100.00;99044.34;4155347;28;20095;-71
2022/10/13 01:56:27;;;;;;;18.77;10.63;;;;;;;4.36;100.00;99038.06;4154526;28;20054;-71
2022/10/13 01:58:31;;;;;;;19.08;9.68;;;;;;;4.39;100.00;99046.47;4153595;28;20333;-71
2022/10/13 02:00:39;;;;;;;17.08;9.38;;;;;;;4.40;100.00;99034.38;4157720;28;20062;-71
2022/10/13 02:02:58;;;;;;;14.20;9.05;;;;;;;4.42;100.00;99037.59;4162620;28;20053;-71
2022/10/13 02:05:33;;;;;;;13.70;8.07;;;;;;;4.35;100.00;99037.25;4157353;28;20753;-71
2022/10/13 02:07:43;;;;;;;13.18;9.38;;;;;;;4.30;100.00;99034.66;4168336;28;20049;-71
2022/10/13 02:09:49;;;;;;;17.67;10.63;;;;;;;4.26;100.00;99030.97;4157348;28;20049;-71
2022/10/13 02:11:57;;;;;;;15.38;9.80;;;;;;;4.25;100.00;99036.78;4157750;28;20405;-71
2022/10/13 02:14:03;;;;;;;16.73;9.32;;;;;;;4.27;100.00;99043.53;4157450;28;20056;-71
2022/10/13 02:16:04;;;;;;;17.65;10.48;;;;;;;4.27;100.00;99043.53;4157806;28;20128;-71
2022/10/13 02:18:07;;;;;;;15.55;10.38;;;;;;;4.26;100.00;99039.19;4162129;28;20040;-71
2022/10/13 02:20:08;;;;;;;;;;;;;;;4.29;100.00;99030.31;4157554;28;20819;-71
2022/10/13 02:22:13;;;;;;;19.30;10.25;;;;;;;4.28;100.00;99025.97;4157821;28;19921;-71
2022/10/13 02:24:14;;;;;;;20.05;11.50;;;;;;;4.26;100.00;99036.47;4158402;28;20068;-71
2022/10/13 02:26:14;;;;;;;19.58;11.30;;;;;;;4.24;100.00;99033.25;4163176;28;20277;-71
2022/10/13 02:28:16;;;;;;;18.85;11.13;;;;;;;4.23;100.00;99031.63;4157260;28;20029;-71
2022/10/13 02:30:26;;;;;;;21.60;12.20;;;;;;;4.23;100.00;99028.91;4157400;28;20030;-71
2022/10/13 02:32:27;;;;;;;22.77;11.82;;;;;;;4.23;100.00;99028.91;4157421;28;20412;-71
2022/10/13 02:34:27;;;;;;;17.40;10.93;;;;;;;4.22;100.00;99024.56;4156724;28;20106;-71
2022/10/13 02:36:28;;;;;;;20.10;11.20;;;;;;;4.26;100.00;99021.97;4157268;28;20068;-71
2022/10/13 02:38:28;;;;;;;22.27;11.60;;;;;;;4.26;100.00;99028.25;4156382;28;20429;-71
2022/10/13 02:40:28;;;;;;;19.75;11.90;;;;;;;4.27;100.00;99020.81;4157369;28;20056;-71
2022/10/13 02:42:28;;;;;;;15.90;9.80;;;;;;;4.30;100.00;99020.16;4157549;28;20080;-71
2022/10/13 02:44:29;;;;;;;21.42;10.45;;;;;;;4.33;100.00;99011.31;4156679;28;20038;-71
2022/10/13 02:46:29;;;;;;;17.90;11.35;;;;;;;4.34;100.00;99016.47;4157149;28;20053;-71
2022/10/13 02:48:29;;;;;;;19.63;11.55;;;;;;;4.32;100.00;99018.75;4156295;28;20448;-71
2022/10/13 02:50:30;;;;;;;17.40;11.38;;;;;;;4.29;100.00;99015.81;4157672;28;20370;-71
2022/10/13 02:52:31;;;;;;;20.40;11.05;;;;;;;4.31;100.00;99022.63;4157916;28;20346;-71
2022/10/13 02:54:31;;;;;;;18.27;11.88;;;;;;;4.29;100.00;99015.81;4157880;28;20385;-71
2022/10/13 02:56:31;;;;;;;20.60;11.30;;;;;;;4.26;100.00;99002.78;4157108;28;20037;-71
2022/10/13 02:58:31;;;;;;;23.63;11.63;;;;;;;4.25;100.00;99001.97;4156434;28;20470;-71
2022/10/13 03:00:33;;;;;;;20.98;11.55;;;;;;;4.28;100.00;99009.53;4158090;28;20061;-71
2022/10/13 03:02:33;;;;;;;22.27;11.68;;;;;;;4.30;100.00;99003.75;4157986;28;20049;-71
2022/10/13 03:04:33;;;;;;;18.27;11.52;;;;;;;4.32;100.00;99004.25;4157549;28;20496;-71
2022/10/13 03:06:34;;;;;;;26.38;11.70;;;;;;;4.36;100.00;99007.94;4157756;28;20049;-71
2022/10/13 03:08:35;;;;;;;17.38;11.15;;;;;;;4.41;100.00;99008.56;4155919;28;20136;-71
2022/10/13 03:10:36;;;;;;;19.38;10.95;;;;;;;4.45;100.00;99011.47;4156347;28;20041;-71
2022/10/13 03:12:36;;;;;;;24.67;11.27;;;;;;;4.44;100.00;99018.06;4155794;28;20559;-70
2022/10/13 03:14:36;;;;;;;16.30;10.15;;;;;;;4.45;100.00;99011.47;4157644;28;20380;-70
2022/10/13 03:16:36;;;;;;;18.50;10.15;;;;;;;4.43;100.00;99006.31;4157234;28;20041;-71
2022/10/13 03:18:37;;;;;;;18.92;11.23;;;;;;;4.46;100.00;99007.59;4158729;28;20114;-71
2022/10/13 03:20:37;;;;;;;17.05;10.30;;;;;;;4.47;100.00;99007.28;4159598;28;20045;-71
2022/10/13 03:22:37;;;;;;;19.25;10.48;;;;;;;4.46;100.00;99008.38;4156601;28;20420;-71
2022/10/13 03:24:37;;;;;;;17.73;10.70;;;;;;;4.46;100.00;99008.38;4157272;28;20048;-71
2022/10/13 03:26:38;;;;;;;17.40;11.30;;;;;;;4.50;100.00;99003.88;4160822;28;20139;-71
2022/10/13 03:28:38;;;;;;;15.77;10.27;;;;;;;4.50;100.00;98992.13;4154936;28;20458;-71
2022/10/13 03:30:38;;;;;;;18.13;10.32;;;;;;;4.54;100.00;99003.22;4157855;28;20053;-71
2022/10/13 03:32:39;;;;;;;17.73;10.02;;;;;;;4.53;100.00;98985.97;4157327;28;20053;-71
2022/10/13 03:34:39;;;;;;;18.17;10.60;;;;;;;4.57;100.00;98994.38;4155839;28;20056;-71
2022/10/13 03:36:40;;;;;;;16.00;10.65;;;;;;;4.59;100.00;98992.91;4156651;28;20045;-71
2022/10/13 03:38:40;;;;;;;16.17;9.98;;;;;;;4.60;100.00;98999.19;4156523;28;20049;-71
2022/10/13 03:40:40;;;;;;;16.23;10.18;;;;;;;4.61;100.00;98995.31;4157803;28;20065;-71
2022/10/13 03:42:41;;;;;;;17.58;10.18;;;;;;;4.64;100.00;98994.69;4155874;28;20214;-71
2022/10/13 03:44:41;;;;;;;22.27;10.88;;;;;;;4.65;100.00;98986.13;4154804;28;20555;-71
2022/10/13 03:46:41;;;;;;;17.35;9.40;;;;;;;4.70;100.00;98985.94;4156627;28;20044;-71
2022/10/13 03:48:42;;;;;;;15.10;9.52;;;;;;;4.73;100.00;98992.72;4157744;28;20107;-71
2022/10/13 03:50:42;;;;;;;19.00;10.80;;;;;;;4.75;100.00;98987.72;4157369;28;20038;-71
2022/10/13 03:52:42;;;;;;;19.13;10.23;;;;;;;4.73;100.00;98989.97;4157942;28;20565;-71
2022/10/13 03:54:43;;;;;;;17.80;10.50;;;;;;;4.76;100.00;98989.31;4157247;28;20050;-71
2022/10/13 03:56:43;;;;;;;17.30;9.50;;;;;;;4.75;100.00;98988.50;4155367;28;20253;-71
2022/10/13 03:58:44;;;;;;;16.33;10.15;;;;;;;4.72;100.00;98993.84;4157670;28;20452;-71
2022/10/13 04:00:45;;;;;;;22.65;9.75;;;;;;;4.64;100.00;98979.03;4156130;28;20374;-71
2022/10/13 04:02:48;;;;;;;20.88;10.68;;;;;;;4.62;100.00;98973.06;4156480;28;20084;-71
2022/10/13 04:04:49;;;;;;;19.25;11.50;;;;;;;4.60;100.00;98980.00;4156130;28;20076;-71
2022/10/13 04:06:49;;;;;;;17.40;10.88;;;;;;;4.58;100.00;98972.13;4157863;28;20056;-71
2022/10/13 04:08:50;;;;;;;18.65;11.60;;;;;;;4.57;100.00;98969.72;4157059;28;20056;-71
2022/10/13 04:10:58;;;;;;;18.50;10.68;;;;;;;4.57;100.00;98965.03;4155365;28;20084;-71
2022/10/13 04:12:58;;;;;;;19.00;11.10;;;;;;;4.57;100.00;98969.72;4157733;28;20049;-71
2022/10/13 04:14:59;;;;;;;21.17;12.55;;;;;;;4.57;100.00;98972.44;4156088;28;20477;-71
2022/10/13 04:16:59;;;;;;;20.55;10.90;;;;;;;4.57;100.00;98958.75;4155407;28;20089;-71
2022/10/13 04:19:02;;;;;;;16.92;11.05;;;;;;;4.57;100.00;98965.03;4155465;28;20417;-71
2022/10/13 04:21:10;;;;;;;19.90;12.20;;;;;;;4.61;100.00;98963.22;4156492;28;20038;-71
2022/10/13 04:23:11;;;;;;;22.60;13.55;;;;;;;4.58;100.00;98974.06;4157106;28;20045;-71
2022/10/13 04:25:11;;;;;;;25.67;14.68;;;;;;;4.55;100.00;98964.56;4155387;28;20272;-71
2022/10/13 04:27:11;;;;;;;20.55;13.32;;;;;;;4.55;100.00;98971.94;4156235;28;20048;-71
2022/10/13 04:29:12;;;;;;;19.95;11.75;;;;;;;4.49;100.00;98966.66;4156512;28;20413;-71
2022/10/13 04:31:12;;;;;;;19.92;12.65;;;;;;;4.49;100.00;98979.56;4157067;28;20063;-71
2022/10/13 04:33:13;;;;;;;24.58;12.55;;;;;;;4.48;100.00;98975.22;4155103;28;20050;-71
2022/10/13 04:35:13;;;;;;;22.65;11.50;;;;;;;4.45;100.00;98978.59;4156836;28;20470;-71
2022/10/13 04:37:13;;;;;;;24.85;11.75;;;;;;;4.46;100.00;98978.25;4155630;28;20129;-71
2022/10/13 04:39:13;;;;;;;16.25;10.57;;;;;;;4.49;100.00;98988.56;4155122;28;20056;-71
2022/10/13 04:41:16;;;;;;;16.35;10.25;;;;;;;4.48;100.00;98986.97;4155731;28;20549;-71
2022/10/13 04:43:16;;;;;;;17.20;10.40;;;;;;;4.47;100.00;98977.16;4155569;28;20062;-71
2022/10/13 04:45:17;;;;;;;21.77;10.80;;;;;;;4.43;100.00;98981.66;4155280;28;20044;-71
2022/10/13 04:47:17;;;;;;;18.30;10.43;;;;;;;4.43;100.00;98978.91;4155904;28;20140;-71
2022/10/13 04:49:17;;;;;;;16.88;9.85;;;;;;;4.44;100.00;98977.78;4159410;28;20068;-71
2022/10/13 04:51:20;;;;;;;21.13;11.85;;;;;;;4.41;100.00;98978.44;4156182;28;20404;-71
2022/10/13 04:53:22;;;;;;;15.95;9.77;;;;;;;4.38;100.00;98978.25;4154955;28;20432;-71
2022/10/13 04:55:22;;;;;;;17.50;10.30;;;;;;;4.37;100.00;98974.72;4156464;28;20358;-71
2022/10/13 04:57:23;;;;;;;23.58;10.80;;;;;;;4.36;100.00;98967.63;4090592;28;20084;-71
2022/10/13 04:59:23;;;;;;;21.13;11.98;;;;;;;4.33;100.00;98965.56;4140133;28;20135;-71
2022/10/13 05:01:24;;;;;;;21.55;12.45;;;;;;;4.33;100.00;98970.22;4140455;28;20034;-71
2022/10/13 05:03:24;;;;;;;13.73;8.93;;;;;;;4.34;100.00;98966.38;4138995;28;20080;-70
2022/10/13 05:05:25;;;;;;;17.42;10.85;;;;;;;4.31;100.00;98967.03;4140547;28;20190;-71
2022/10/13 05:07:25;;;;;;;24.35;11.85;;;;;;;4.31;100.00;98958.81;4141565;28;20061;-71
2022/10/13 05:09:26;;;;;;;18.77;10.73;;;;;;;4.29;100.00;98961.84;4138213;28;20045;-71
2022/10/13 05:11:27;;;;;;;22.25;11.48;;;;;;;4.26;100.00;98954.28;4139299;28;20128;-71
2022/10/13 05:13:28;;;;;;;19.75;10.27;;;;;;;4.25;100.00;98960.09;4137923;28;20046;-71
2022/10/13 05:15:29;;;;;;;19.52;11.15;;;;;;;4.22;100.00;98969.78;4139935;28;20049;-71
2022/10/13 05:17:30;;;;;;;19.73;10.85;;;;;;;4.19;100.00;98965.72;4138888;28;20050;-71
2022/10/13 05:19:30;;;;;;;20.38;10.85;;;;;;;4.19;100.00;98964.94;4140584;28;20048;-70
2022/10/13 05:21:31;;;;;;;19.88;10.65;;;;;;;4.17;100.00;98965.25;4138376;28;20058;-70
2022/10/13 05:23:31;;;;;;;22.23;11.30;;;;;;;4.18;100.00;98971.53;4139020;28;20050;-71
2022/10/13 05:25:34;;;;;;;20.02;9.75;;;;;;;4.11;100.00;98972.03;4138675;28;20494;-71
2022/10/13 05:27:34;;;;;;;;;;;;;;;4.09;100.00;98973.47;4139036;28;20430;-71
2022/10/13 05:29:35;;;;;;;18.50;10.63;;;;;;;4.06;100.00;98977.69;4138356;28;19975;-71
2022/10/13 05:31:36;;;;;;;18.58;10.80;;;;;;;4.03;100.00;98982.97;4138364;28;20129;-71
2022/10/13 05:33:36;;;;;;;17.52;10.07;;;;;;;4.06;100.00;98985.88;4137792;28;20488;-71
2022/10/13 05:35:37;;;;;;;18.67;10.82;;;;;;;4.08;100.00;98999.25;4137915;28;20050;-71
2022/10/13 05:37:37;;;;;;;21.52;10.15;;;;;;;4.15;100.00;98997.66;4138430;28;20097;-71
2022/10/13 05:39:37;;;;;;;24.13;12.23;;;;;;;4.16;100.00;98996.50;4137618;28;20042;-71
2022/10/13 05:41:38;;;;;;;23.85;12.18;;;;;;;4.18;100.00;98996.19;4138662;28;20430;-71
2022/10/13 05:43:40;;;;;;;25.10;11.50;;;;;;;4.21;100.00;98998.25;4142258;28;20057;-71
2022/10/13 05:45:40;;;;;;;20.67;12.23;;;;;;;4.25;100.00;98993.78;4138567;28;20477;-71
2022/10/13 05:47:40;;;;;;;30.08;13.85;;;;;;;4.27;100.00;98985.22;4138827;28;20053;-71
2022/10/13 05:49:41;;;;;;;29.33;15.07;;;;;;;4.31;100.00;98988.94;4137911;28;20137;-71
2022/10/13 05:51:47;;;;;;;26.38;12.75;;;;;;;4.36;100.00;98992.28;4138737;28;20042;-71
2022/10/13 05:53:52;;;;;;;24.10;12.43;;;;;;;4.38;100.00;98983.75;4138697;28;20161;-71
2022/10/13 05:55:55;;;;;;;47.60;13.98;;;;;;;4.36;100.00;98970.38;4138569;28;20078;-71
2022/10/13 05:57:56;;;;;;;26.02;14.05;;;;;;;4.40;100.00;98976.84;4143981;28;20292;-71
2022/10/13 06:00:00;;;;;;;22.95;13.15;;;;;;;4.36;100.00;98981.34;4138690;28;20056;-71
2022/10/13 06:02:02;;;;;;;19.90;12.25;;;;;;;4.38;100.00;98987.28;4142649;28;20049;-71
2022/10/13 06:04:08;;;;;;;22.98;13.23;;;;;;;4.39;100.00;98982.63;4138845;28;20053;-71
2022/10/13 06:06:09;;;;;;;29.83;13.25;;;;;;;4.42;100.00;98987.47;4137576;28;20029;-71
2022/10/13 06:08:09;;;;;;;20.15;12.13;;;;;;;4.41;100.00;98972.16;4137082;28;20032;-71
2022/10/13 06:10:10;;;;;;;20.98;12.50;;;;;;;4.43;100.00;98980.84;4137753;28;20109;-71
2022/10/13 06:12:11;;;;;;;29.10;13.73;;;;;;;4.42;100.00;98985.53;4137610;28;20425;-71
2022/10/13 06:14:11;;;;;;;26.20;12.88;;;;;;;4.43;100.00;98975.38;4137161;28;20038;-71
2022/10/13 06:16:11;;;;;;;28.13;12.43;;;;;;;4.47;100.00;98985.38;4137366;28;20036;-71
2022/10/13 06:18:12;;;;;;;30.73;13.88;;;;;;;4.52;100.00;98978.88;4138464;28;20083;-71
2022/10/13 06:20:12;;;;;;;23.92;13.43;;;;;;;4.53;100.00;98972.28;4140280;28;20493;-71
2022/10/13 06:22:12;;;;;;;28.13;12.18;;;;;;;4.56;100.00;98959.88;4139062;28;20085;-70
2022/10/13 06:24:12;;;;;;;22.17;12.85;;;;;;;4.59;100.00;98959.22;4138407;28;20154;-71
2022/10/13 06:26:13;;;;;;;21.60;11.75;;;;;;;4.62;100.00;98966.78;4137895;28;20037;-71
2022/10/13 06:28:14;;;;;;;23.42;12.85;;;;;;;4.62;100.00;98964.03;4138797;28;20048;-71
2022/10/13 06:30:14;;;;;;;27.50;13.15;;;;;;;4.68;100.00;98971.75;4136802;28;20061;-71
2022/10/13 06:32:14;;;;;;;22.98;11.65;;;;;;;4.68;100.00;98965.47;4138243;28;20030;-71
2022/10/13 06:34:14;;;;;;;23.35;12.38;;;;;;;4.74;100.00;98959.50;4138584;28;20030;-71
2022/10/13 06:36:15;;;;;;;21.63;11.52;;;;;;;4.75;100.00;98969.31;4137192;28;20057;-71
2022/10/13 06:38:16;;;;;;;24.70;12.00;;;;;;;4.81;100.00;98964.47;4138260;28;20057;-71
2022/10/13 06:40:16;;;;;;;20.73;11.88;;;;;;;4.84;100.00;98971.22;4138041;28;20469;-71
2022/10/13 06:42:17;;;;;;;28.83;12.65;;;;;;;4.88;100.00;98974.91;4137891;28;20033;-71
2022/10/13 06:44:17;;;;;;;21.58;12.23;;;;;;;4.92;100.00;98970.41;4137464;28;20037;-71
2022/10/13 06:46:17;;;;;;;24.35;11.85;;;;;;;4.96;100.00;98974.06;4139174;28;20021;-71
2022/10/13 06:48:18;;;;;;;19.95;12.18;;;;;;;4.98;100.00;98963.59;4141012;28;20396;-71
2022/10/13 06:50:18;;;;;;;22.90;12.88;;;;;;;5.00;100.00;98966.81;4140207;28;20088;-71
2022/10/13 06:52:18;;;;;;;20.60;11.40;;;;;;;5.05;100.00;98972.94;4140429;28;20473;-71
2022/10/13 06:54:19;;;;;;;22.33;12.07;;;;;;;5.10;100.00;98974.66;4143870;28;20509;-71
2022/10/13 06:56:19;;;;;;;27.02;12.55;;;;;;;5.13;100.00;98981.41;4141277;28;20030;-71
2022/10/13 06:58:19;;;;;;;18.67;11.52;;;;;;;5.17;100.00;98974.97;4143794;28;20030;-71
2022/10/13 07:00:20;;;;;;;27.38;13.68;;;;;;;5.20;100.00;98978.97;4140186;28;20510;-71
2022/10/13 07:02:20;;;;;;;17.40;10.52;;;;;;;5.23;100.00;98970.91;4141397;28;20073;-71
2022/10/13 07:04:21;;;;;;;23.55;13.13;;;;;;;5.26;100.00;98974.91;4140003;28;20061;-71
2022/10/13 07:06:22;;;;;;;19.77;11.50;;;;;;;5.26;100.00;98972.16;4140325;28;20496;-71
2022/10/13 07:08:22;;;;;;;18.60;11.70;;;;;;;5.30;100.00;98965.69;4140360;28;20049;-71
2022/10/13 07:10:23;;;;;;;21.20;12.18;;;;;;;5.35;100.00;98964.69;4140843;28;20053;-71
2022/10/13 07:12:23;;;;;;;20.30;12.10;;;;;;;5.35;100.00;98957.25;4139274;28;20378;-71
2022/10/13 07:14:23;;;;;;;18.27;12.00;;;;;;;5.40;100.00;98955.47;4141109;28;20107;-71
2022/10/13 07:16:24;;;;;;;28.35;14.00;;;;;;;5.43;100.00;98958.34;4141343;28;20455;-71
2022/10/13 07:18:24;;;;;;;23.15;12.95;;;;;;;5.49;100.00;98951.53;4139075;28;20038;-71
2022/10/13 07:20:24;;;;;;;19.90;11.88;;;;;;;5.55;100.00;98963.13;4140684;28;20042;-71
2022/10/13 07:22:25;;;;;;;29.35;12.00;;;;;;;5.62;100.00;98952.41;4147067;28;20033;-71
2022/10/13 07:24:27;;;;;;;24.50;11.80;;;;;;;5.67;100.00;98945.94;4139950;28;20061;-71
2022/10/13 07:26:28;;;;;;;26.35;13.43;;;;;;;5.76;100.00;98949.41;4140001;28;20056;-71
2022/10/13 07:28:28;;;;;;;29.23;18.92;;;;;;;5.84;100.00;98948.53;4139588;28;20046;-71
2022/10/13 07:30:28;;;;;;;27.73;15.32;;;;;;;5.90;100.00;98955.44;4141269;28;20141;-71
2022/10/13 07:32:30;;;;;;;25.35;13.35;;;;;;;5.96;100.00;98951.41;4143502;28;20046;-71
2022/10/13 07:34:30;;;;;;;25.92;13.25;;;;;;;6.02;100.00;98957.47;4140982;28;20128;-71
2022/10/13 07:36:32;;;;;;;21.15;11.05;;;;;;;6.04;100.00;98960.69;4145567;28;20339;-71
2022/10/13 07:38:32;;;;;;;22.00;13.07;;;;;;;6.04;100.00;98949.69;4139794;28;20089;-71
2022/10/13 07:40:33;;;;;;;18.23;12.15;;;;;;;6.05;100.00;98943.09;4139261;28;20049;-71
2022/10/13 07:42:34;;;;;;;23.38;13.43;;;;;;;6.07;100.00;98944.34;4140363;28;20049;-71
2022/10/13 07:44:34;;;;;;;23.17;13.63;;;;;;;6.08;100.00;98934.97;4140829;28;20056;-71
2022/10/13 07:46:34;;;;;;;20.23;13.70;;;;;;;6.12;100.00;98952.38;4139325;28;20057;-71
2022/10/13 07:48:35;;;;;;;22.13;13.10;;;;;;;6.13;100.00;98944.94;4138813;28;20553;-71
2022/10/13 07:50:35;;;;;;;23.15;13.57;;;;;;;6.17;100.00;98938.44;4140226;28;20049;-71
2022/10/13 07:52:36;;;;;;;26.58;15.80;;;;;;;6.22;100.00;98934.69;4139765;28;20046;-71
2022/10/13 07:54:36;;;;;;;26.77;16.08;;;;;;;6.28;100.00;98927.81;4140091;28;20081;-71
2022/10/13 07:56:37;;;;;;;26.48;15.48;;;;;;;6.31;100.00;98926.34;4140366;28;20096;-71
2022/10/13 07:58:39;;;;;;;24.73;15.70;;;;;;;6.35;100.00;98917.06;4139506;28;20076;-71
2022/10/13 08:00:40;;;;;;;20.20;14.30;;;;;;;6.41;100.00;98920.41;4148093;28;20047;-71
2022/10/13 08:02:40;;;;;;;24.23;14.10;;;;;;;6.48;100.00;98909.66;4141824;28;20144;-71
2022/10/13 08:04:40;;;;;;;23.17;12.68;;;;;;;6.56;100.00;98914.28;4140498;28;20073;-71
2022/10/13 08:06:41;;;;;;;23.75;13.45;;;;;;;6.68;99.49;98917.03;4139731;28;20053;-71
2022/10/13 08:08:41;;;;;;;21.13;12.20;;;;;;;6.78;100.00;98917.72;4138400;28;20524;-71
2022/10/13 08:10:41;;;;;;;20.00;10.20;;;;;;;6.86;100.00;98911.31;4140412;28;20050;-71
2022/10/13 08:12:42;;;;;;;23.42;11.13;;;;;;;6.97;100.00;98915.25;4140663;28;20050;-71
2022/10/13 08:14:42;;;;;;;15.90;10.27;;;;;;;7.07;100.00;98912.03;4138471;28;20038;-71
2022/10/13 08:16:44;;;;;;;19.60;11.65;;;;;;;7.18;100.00;98923.38;4140856;28;20482;-71
2022/10/13 08:18:45;;;;;;;20.23;12.20;;;;;;;7.25;100.00;98916.13;4139711;28;20337;-71
2022/10/13 08:20:45;;;;;;;22.63;12.00;;;;;;;7.31;100.00;98928.53;4141149;28;20137;-71
2022/10/13 08:22:45;;;;;;;19.63;11.55;;;;;;;7.40;100.00;98924.84;4138883;28;20045;-71
2022/10/13 08:24:46;;;;;;;24.08;13.55;;;;;;;7.47;100.00;98933.34;4140011;28;20132;-71
2022/10/13 08:26:46;;;;;;;22.27;13.38;;;;;;;7.54;100.00;98933.56;4141954;28;20058;-71
2022/10/13 08:28:46;;;;;;;25.23;14.00;;;;;;;7.63;100.00;98934.22;4142943;28;20084;-71
2022/10/13 08:30:47;;;;;;;26.40;14.05;;;;;;;7.72;100.00;98934.88;4142554;28;20041;-71
2022/10/13 08:32:47;;;;;;;25.10;13.35;;;;;;;7.82;100.00;98928.09;4145596;28;20414;-71
2022/10/13 08:34:48;;;;;;;23.67;14.07;;;;;;;7.89;100.00;98917.28;4138443;28;20038;-71
2022/10/13 08:36:52;;;;;;;26.90;13.98;;;;;;;7.98;100.00;98928.97;4140220;28;20454;-71
2022/10/13 08:38:52;;;;;;;22.52;14.07;;;;;;;8.06;100.00;98916.19;4138918;28;20073;-71
2022/10/13 08:40:52;;;;;;;26.52;13.90;;;;;;;8.12;100.00;98915.59;4139377;28;20046;-71
2022/10/13 08:42:53;;;;;;;25.92;15.85;;;;;;;8.22;100.00;98921.75;4139482;28;20050;-71
2022/10/13 08:45:01;;;;;;;28.27;15.75;;;;;;;8.35;100.00;98926.88;4141300;28;20042;-71
2022/10/13 08:47:43;;;;;;;25.35;14.15;;;;;;;8.46;100.00;98915.34;4143070;28;20070;-71
2022/10/13 08:49:45;;;;;;;28.73;14.18;;;;;;;8.60;100.00;98924.78;4144004;28;20508;-71
2022/10/13 08:51:45;;;;;;;53.38;25.80;;;;;;;8.69;100.00;98927.38;4155792;28;20048;-71
2022/10/13 08:53:47;;;;;;;36.97;16.48;;;;;;;8.79;100.00;98921.34;4157100;28;20052;-71
2022/10/13 08:56:01;;;;;;;31.33;17.03;;;;;;;8.88;100.00;98921.97;4157250;28;20275;-71
2022/10/13 08:58:11;;;;;;;36.80;17.42;;;;;;;8.95;100.00;98919.38;4157036;28;20046;-71
2022/10/13 09:00:12;;;;;;;35.20;17.08;;;;;;;8.99;100.00;98916.69;4160716;28;20368;-71
2022/10/13 09:02:25;;;;;;;31.05;14.60;;;;;;;9.05;100.00;98920.00;4154955;28;20039;-71
2022/10/13 09:04:35;;;;;;;31.80;14.05;;;;;;;9.11;100.00;98921.34;4157122;28;20084;-71
2022/10/13 09:06:40;;;;;;;23.75;14.18;;;;;;;9.15;100.00;98911.16;4155518;28;20382;-71
2022/10/13 09:08:47;;;;;;;35.45;16.17;;;;;;;9.20;100.00;98914.47;4157562;28;20053;-71
2022/10/13 09:10:52;;;;;;;25.50;14.98;;;;;;;9.22;100.00;98901.09;4155700;28;20088;-71
2022/10/13 09:12:52;;;;;;;25.13;13.73;;;;;;;9.27;100.00;98913.84;4158856;28;20045;-71
2022/10/13 09:15:19;;;;;;;29.15;13.90;;;;;;;9.33;100.00;98906.88;4156876;28;20188;-71
2022/10/13 09:17:23;;;;;;;32.70;16.58;;;;;;;9.51;100.00;98907.25;4154942;28;20174;-71
2022/10/13 09:19:35;;;;;;;24.27;14.52;;;;;;;9.58;100.00;98913.75;4158418;28;20076;-71
2022/10/13 09:21:35;;;;;;;31.75;18.48;;;;;;;9.67;100.00;98899.72;4157303;28;20515;-71
2022/10/13 09:23:36;;;;;;;29.42;16.50;;;;;;;9.72;100.00;98891.16;4158583;28;20037;-71
2022/10/13 09:25:48;;;;;;;31.17;17.63;;;;;;;9.81;100.00;98896.47;4155755;28;20183;-71